sensor_id;sensor_type;location;lat;lon;timestamp;P1;durP1;ratioP1;P2;durP2;ratioP2
43048;SDS011;28673;44.412;11.918;2024-02-15T00:02:15;36.65;;;24.73;;
43048;SDS011;28673;44.412;11.918;2024-02-15T00:04:41;30.10;;;21.95;;
43048;SDS011;28673;44.412;11.918;2024-02-15T00:07:07;34.20;;;23.90;;
43048;SDS011;28673;44.412;11.918;2024-02-15T00:09:33;35.13;;;25.13;;
43048;SDS011;28673;44.412;11.918;2024-02-15T00:11:59;33.33;;;23.98;;
43048;SDS011;28673;44.412;11.918;2024-02-15T00:14:25;32.10;;;23.63;;
43048;SDS011;28673;44.412;11.918;2024-02-15T00:16:53;43.83;;;23.92;;
43048;SDS011;28673;44.412;11.918;2024-02-15T00:19:20;38.78;;;25.55;;
43048;SDS011;28673;44.412;11.918;2024-02-15T00:21:47;44.08;;;25.52;;
43048;SDS011;28673;44.412;11.918;2024-02-15T00:24:13;50.30;;;26.80;;
43048;SDS011;28673;44.412;11.918;2024-02-15T00:26:40;51.22;;;28.08;;
43048;SDS011;28673;44.412;11.918;2024-02-15T00:29:08;53.55;;;27.05;;
43048;SDS011;28673;44.412;11.918;2024-02-15T00:31:34;52.33;;;28.10;;
43048;SDS011;28673;44.412;11.918;2024-02-15T00:34:01;48.85;;;28.52;;
43048;SDS011;28673;44.412;11.918;2024-02-15T00:36:30;71.72;;;34.78;;
43048;SDS011;28673;44.412;11.918;2024-02-15T00:38:55;58.53;;;31.70;;
43048;SDS011;28673;44.412;11.918;2024-02-15T00:41:21;56.25;;;31.55;;
43048;SDS011;28673;44.412;11.918;2024-02-15T00:43:47;64.85;;;30.80;;
43048;SDS011;28673;44.412;11.918;2024-02-15T00:46:13;60.15;;;30.13;;
43048;SDS011;28673;44.412;11.918;2024-02-15T00:48:39;59.28;;;31.17;;
43048;SDS011;28673;44.412;11.918;2024-02-15T00:51:06;63.10;;;31.45;;
43048;SDS011;28673;44.412;11.918;2024-02-15T00:53:32;55.65;;;30.13;;
43048;SDS011;28673;44.412;11.918;2024-02-15T00:55:57;65.45;;;31.52;;
43048;SDS011;28673;44.412;11.918;2024-02-15T00:58:23;59.42;;;30.98;;
43048;SDS011;28673;44.412;11.918;2024-02-15T01:00:50;56.95;;;29.23;;
43048;SDS011;28673;44.412;11.918;2024-02-15T01:03:16;55.92;;;29.77;;
43048;SDS011;28673;44.412;11.918;2024-02-15T01:05:42;59.17;;;29.58;;
43048;SDS011;28673;44.412;11.918;2024-02-15T01:08:07;50.33;;;26.92;;
43048;SDS011;28673;44.412;11.918;2024-02-15T01:10:34;48.67;;;26.38;;
43048;SDS011;28673;44.412;11.918;2024-02-15T01:13:00;51.30;;;28.83;;
43048;SDS011;28673;44.412;11.918;2024-02-15T01:15:26;45.90;;;26.58;;
43048;SDS011;28673;44.412;11.918;2024-02-15T01:17:51;46.83;;;26.83;;
43048;SDS011;28673;44.412;11.918;2024-02-15T01:20:17;47.50;;;25.73;;
43048;SDS011;28673;44.412;11.918;2024-02-15T01:22:43;40.97;;;24.50;;
43048;SDS011;28673;44.412;11.918;2024-02-15T01:25:09;44.08;;;24.30;;
43048;SDS011;28673;44.412;11.918;2024-02-15T01:27:36;48.65;;;25.75;;
43048;SDS011;28673;44.412;11.918;2024-02-15T01:30:03;45.80;;;25.23;;
43048;SDS011;28673;44.412;11.918;2024-02-15T01:32:29;44.35;;;25.65;;
43048;SDS011;28673;44.412;11.918;2024-02-15T01:34:56;41.50;;;23.67;;
43048;SDS011;28673;44.412;11.918;2024-02-15T01:37:22;42.10;;;24.42;;
43048;SDS011;28673;44.412;11.918;2024-02-15T01:39:47;43.58;;;24.70;;
43048;SDS011;28673;44.412;11.918;2024-02-15T01:42:14;38.58;;;24.15;;
43048;SDS011;28673;44.412;11.918;2024-02-15T01:44:40;41.55;;;23.95;;
43048;SDS011;28673;44.412;11.918;2024-02-15T01:47:06;44.13;;;25.30;;
43048;SDS011;28673;44.412;11.918;2024-02-15T01:49:33;42.00;;;24.25;;
43048;SDS011;28673;44.412;11.918;2024-02-15T01:51:59;41.95;;;23.83;;
43048;SDS011;28673;44.412;11.918;2024-02-15T01:54:27;42.95;;;21.95;;
43048;SDS011;28673;44.412;11.918;2024-02-15T01:56:53;51.70;;;26.35;;
43048;SDS011;28673;44.412;11.918;2024-02-15T01:59:21;46.67;;;26.13;;
43048;SDS011;28673;44.412;11.918;2024-02-15T02:01:48;45.33;;;24.25;;
43048;SDS011;28673;44.412;11.918;2024-02-15T02:04:15;50.70;;;25.52;;
43048;SDS011;28673;44.412;11.918;2024-02-15T02:06:41;50.45;;;25.83;;
43048;SDS011;28673;44.412;11.918;2024-02-15T02:09:13;51.97;;;26.25;;
43048;SDS011;28673;44.412;11.918;2024-02-15T02:11:43;50.88;;;25.95;;
43048;SDS011;28673;44.412;11.918;2024-02-15T02:14:10;53.15;;;24.25;;
43048;SDS011;28673;44.412;11.918;2024-02-15T02:16:36;42.97;;;24.60;;
43048;SDS011;28673;44.412;11.918;2024-02-15T02:19:04;46.35;;;25.13;;
43048;SDS011;28673;44.412;11.918;2024-02-15T02:21:34;47.03;;;25.88;;
43048;SDS011;28673;44.412;11.918;2024-02-15T02:24:02;46.50;;;23.55;;
43048;SDS011;28673;44.412;11.918;2024-02-15T02:26:33;39.90;;;22.67;;
43048;SDS011;28673;44.412;11.918;2024-02-15T02:28:59;42.53;;;23.88;;
43048;SDS011;28673;44.412;11.918;2024-02-15T02:31:32;45.97;;;24.70;;
43048;SDS011;28673;44.412;11.918;2024-02-15T02:36:27;38.92;;;22.33;;
43048;SDS011;28673;44.412;11.918;2024-02-15T02:38:54;43.45;;;22.83;;
43048;SDS011;28673;44.412;11.918;2024-02-15T02:43:53;44.40;;;21.95;;
43048;SDS011;28673;44.412;11.918;2024-02-15T02:46:25;44.72;;;22.30;;
43048;SDS011;28673;44.412;11.918;2024-02-15T02:48:50;39.72;;;21.67;;
43048;SDS011;28673;44.412;11.918;2024-02-15T02:51:17;38.67;;;21.17;;
43048;SDS011;28673;44.412;11.918;2024-02-15T02:53:43;37.70;;;21.48;;
43048;SDS011;28673;44.412;11.918;2024-02-15T02:56:09;37.53;;;22.27;;
43048;SDS011;28673;44.412;11.918;2024-02-15T02:58:34;47.15;;;22.13;;
43048;SDS011;28673;44.412;11.918;2024-02-15T03:01:00;35.90;;;21.90;;
43048;SDS011;28673;44.412;11.918;2024-02-15T03:03:26;37.70;;;20.65;;
43048;SDS011;28673;44.412;11.918;2024-02-15T03:05:52;43.75;;;23.33;;
43048;SDS011;28673;44.412;11.918;2024-02-15T03:08:19;33.65;;;19.17;;
43048;SDS011;28673;44.412;11.918;2024-02-15T03:10:45;42.20;;;23.33;;
43048;SDS011;28673;44.412;11.918;2024-02-15T03:13:11;37.45;;;20.73;;
43048;SDS011;28673;44.412;11.918;2024-02-15T03:15:37;38.70;;;21.20;;
43048;SDS011;28673;44.412;11.918;2024-02-15T03:18:03;38.03;;;20.00;;
43048;SDS011;28673;44.412;11.918;2024-02-15T03:20:32;36.67;;;20.77;;
43048;SDS011;28673;44.412;11.918;2024-02-15T03:22:59;36.03;;;21.05;;
43048;SDS011;28673;44.412;11.918;2024-02-15T03:25:26;33.58;;;19.83;;
43048;SDS011;28673;44.412;11.918;2024-02-15T03:27:56;35.60;;;19.40;;
43048;SDS011;28673;44.412;11.918;2024-02-15T03:30:24;34.67;;;19.98;;
43048;SDS011;28673;44.412;11.918;2024-02-15T03:32:51;34.88;;;18.60;;
43048;SDS011;28673;44.412;11.918;2024-02-15T03:35:18;35.25;;;20.92;;
43048;SDS011;28673;44.412;11.918;2024-02-15T03:37:47;36.47;;;19.85;;
43048;SDS011;28673;44.412;11.918;2024-02-15T03:40:16;39.17;;;20.10;;
43048;SDS011;28673;44.412;11.918;2024-02-15T03:42:46;34.58;;;19.88;;
43048;SDS011;28673;44.412;11.918;2024-02-15T03:45:12;34.10;;;18.65;;
43048;SDS011;28673;44.412;11.918;2024-02-15T03:47:38;39.97;;;22.08;;
43048;SDS011;28673;44.412;11.918;2024-02-15T03:50:04;36.45;;;21.25;;
43048;SDS011;28673;44.412;11.918;2024-02-15T03:52:31;36.47;;;21.48;;
43048;SDS011;28673;44.412;11.918;2024-02-15T03:54:58;34.38;;;18.70;;
43048;SDS011;28673;44.412;11.918;2024-02-15T03:57:25;37.25;;;19.95;;
43048;SDS011;28673;44.412;11.918;2024-02-15T03:59:51;29.58;;;17.42;;
43048;SDS011;28673;44.412;11.918;2024-02-15T04:02:19;39.58;;;19.40;;
43048;SDS011;28673;44.412;11.918;2024-02-15T04:04:45;41.75;;;20.63;;
43048;SDS011;28673;44.412;11.918;2024-02-15T04:07:14;33.83;;;18.90;;
43048;SDS011;28673;44.412;11.918;2024-02-15T04:09:41;35.22;;;18.70;;
43048;SDS011;28673;44.412;11.918;2024-02-15T04:12:07;35.45;;;18.98;;
43048;SDS011;28673;44.412;11.918;2024-02-15T04:14:33;36.55;;;19.40;;
43048;SDS011;28673;44.412;11.918;2024-02-15T04:16:59;33.92;;;19.35;;
43048;SDS011;28673;44.412;11.918;2024-02-15T04:19:27;46.40;;;20.13;;
43048;SDS011;28673;44.412;11.918;2024-02-15T04:21:53;38.70;;;19.00;;
43048;SDS011;28673;44.412;11.918;2024-02-15T04:24:20;37.20;;;21.13;;
43048;SDS011;28673;44.412;11.918;2024-02-15T04:26:46;38.85;;;21.05;;
43048;SDS011;28673;44.412;11.918;2024-02-15T04:29:14;38.92;;;19.00;;
43048;SDS011;28673;44.412;11.918;2024-02-15T04:31:40;38.88;;;20.88;;
43048;SDS011;28673;44.412;11.918;2024-02-15T04:34:07;34.53;;;19.65;;
43048;SDS011;28673;44.412;11.918;2024-02-15T04:36:35;29.70;;;18.50;;
43048;SDS011;28673;44.412;11.918;2024-02-15T04:39:01;30.38;;;17.58;;
43048;SDS011;28673;44.412;11.918;2024-02-15T04:41:29;33.38;;;18.13;;
43048;SDS011;28673;44.412;11.918;2024-02-15T04:43:55;31.92;;;18.92;;
43048;SDS011;28673;44.412;11.918;2024-02-15T04:46:21;33.25;;;17.35;;
43048;SDS011;28673;44.412;11.918;2024-02-15T04:48:48;33.38;;;18.73;;
43048;SDS011;28673;44.412;11.918;2024-02-15T04:51:17;29.50;;;17.10;;
43048;SDS011;28673;44.412;11.918;2024-02-15T04:53:43;31.20;;;17.67;;
43048;SDS011;28673;44.412;11.918;2024-02-15T04:56:11;33.33;;;18.25;;
43048;SDS011;28673;44.412;11.918;2024-02-15T04:58:41;39.40;;;19.35;;
43048;SDS011;28673;44.412;11.918;2024-02-15T05:01:13;35.92;;;16.80;;
43048;SDS011;28673;44.412;11.918;2024-02-15T05:03:41;37.00;;;17.38;;
43048;SDS011;28673;44.412;11.918;2024-02-15T05:06:07;38.10;;;16.17;;
43048;SDS011;28673;44.412;11.918;2024-02-15T05:08:33;32.08;;;17.90;;
43048;SDS011;28673;44.412;11.918;2024-02-15T05:11:02;30.98;;;16.73;;
43048;SDS011;28673;44.412;11.918;2024-02-15T05:13:29;32.00;;;17.35;;
43048;SDS011;28673;44.412;11.918;2024-02-15T05:15:55;33.22;;;17.67;;
43048;SDS011;28673;44.412;11.918;2024-02-15T05:18:21;33.75;;;16.52;;
43048;SDS011;28673;44.412;11.918;2024-02-15T05:20:46;31.38;;;17.10;;
43048;SDS011;28673;44.412;11.918;2024-02-15T05:23:12;30.67;;;16.00;;
43048;SDS011;28673;44.412;11.918;2024-02-15T05:25:40;37.72;;;16.20;;
43048;SDS011;28673;44.412;11.918;2024-02-15T05:28:06;37.35;;;16.42;;
43048;SDS011;28673;44.412;11.918;2024-02-15T05:30:33;28.50;;;17.13;;
43048;SDS011;28673;44.412;11.918;2024-02-15T05:32:59;39.38;;;16.95;;
43048;SDS011;28673;44.412;11.918;2024-02-15T05:35:25;27.80;;;16.05;;
43048;SDS011;28673;44.412;11.918;2024-02-15T05:37:52;36.55;;;18.02;;
43048;SDS011;28673;44.412;11.918;2024-02-15T05:40:18;30.95;;;17.25;;
43048;SDS011;28673;44.412;11.918;2024-02-15T05:42:44;34.50;;;18.17;;
43048;SDS011;28673;44.412;11.918;2024-02-15T05:47:50;35.17;;;19.00;;
43048;SDS011;28673;44.412;11.918;2024-02-15T05:50:17;32.28;;;16.73;;
43048;SDS011;28673;44.412;11.918;2024-02-15T05:52:46;36.33;;;18.05;;
43048;SDS011;28673;44.412;11.918;2024-02-15T05:55:12;35.20;;;19.25;;
43048;SDS011;28673;44.412;11.918;2024-02-15T05:57:42;36.75;;;18.30;;
43048;SDS011;28673;44.412;11.918;2024-02-15T06:00:08;31.02;;;18.00;;
43048;SDS011;28673;44.412;11.918;2024-02-15T06:02:35;33.10;;;18.33;;
43048;SDS011;28673;44.412;11.918;2024-02-15T06:05:01;33.08;;;17.83;;
43048;SDS011;28673;44.412;11.918;2024-02-15T06:07:29;34.00;;;17.38;;
43048;SDS011;28673;44.412;11.918;2024-02-15T06:09:57;35.72;;;17.77;;
43048;SDS011;28673;44.412;11.918;2024-02-15T06:14:57;33.47;;;16.05;;
43048;SDS011;28673;44.412;11.918;2024-02-15T06:17:22;35.90;;;17.02;;
43048;SDS011;28673;44.412;11.918;2024-02-15T06:19:49;30.42;;;16.50;;
43048;SDS011;28673;44.412;11.918;2024-02-15T06:22:15;43.15;;;18.08;;
43048;SDS011;28673;44.412;11.918;2024-02-15T06:24:41;29.33;;;16.80;;
43048;SDS011;28673;44.412;11.918;2024-02-15T06:27:07;32.35;;;16.27;;
43048;SDS011;28673;44.412;11.918;2024-02-15T06:29:32;31.50;;;17.00;;
43048;SDS011;28673;44.412;11.918;2024-02-15T06:32:17;34.33;;;17.17;;
43048;SDS011;28673;44.412;11.918;2024-02-15T06:35:01;35.50;;;16.73;;
43048;SDS011;28673;44.412;11.918;2024-02-15T06:37:45;35.53;;;17.17;;
43048;SDS011;28673;44.412;11.918;2024-02-15T06:40:30;38.70;;;19.90;;
43048;SDS011;28673;44.412;11.918;2024-02-15T06:42:56;40.20;;;19.98;;
43048;SDS011;28673;44.412;11.918;2024-02-15T06:45:21;41.85;;;21.83;;
43048;SDS011;28673;44.412;11.918;2024-02-15T06:47:48;42.25;;;18.88;;
43048;SDS011;28673;44.412;11.918;2024-02-15T06:50:14;36.95;;;19.05;;
43048;SDS011;28673;44.412;11.918;2024-02-15T06:52:40;39.67;;;19.48;;
43048;SDS011;28673;44.412;11.918;2024-02-15T06:55:10;34.50;;;19.00;;
43048;SDS011;28673;44.412;11.918;2024-02-15T06:57:37;37.47;;;19.98;;
43048;SDS011;28673;44.412;11.918;2024-02-15T07:00:06;40.88;;;21.13;;
43048;SDS011;28673;44.412;11.918;2024-02-15T07:02:35;38.22;;;19.52;;
43048;SDS011;28673;44.412;11.918;2024-02-15T07:05:01;38.50;;;18.90;;
43048;SDS011;28673;44.412;11.918;2024-02-15T07:07:28;39.97;;;18.20;;
43048;SDS011;28673;44.412;11.918;2024-02-15T07:09:54;39.42;;;19.10;;
43048;SDS011;28673;44.412;11.918;2024-02-15T07:12:20;37.20;;;19.90;;
43048;SDS011;28673;44.412;11.918;2024-02-15T07:14:47;43.42;;;21.75;;
43048;SDS011;28673;44.412;11.918;2024-02-15T07:17:13;32.22;;;18.02;;
43048;SDS011;28673;44.412;11.918;2024-02-15T07:19:44;42.72;;;22.38;;
43048;SDS011;28673;44.412;11.918;2024-02-15T07:22:10;33.17;;;17.88;;
43048;SDS011;28673;44.412;11.918;2024-02-15T07:24:36;40.63;;;20.65;;
43048;SDS011;28673;44.412;11.918;2024-02-15T07:27:05;46.13;;;20.73;;
43048;SDS011;28673;44.412;11.918;2024-02-15T07:29:31;45.15;;;21.58;;
43048;SDS011;28673;44.412;11.918;2024-02-15T07:32:00;38.42;;;19.63;;
43048;SDS011;28673;44.412;11.918;2024-02-15T07:34:35;43.65;;;22.83;;
43048;SDS011;28673;44.412;11.918;2024-02-15T07:37:02;51.38;;;23.50;;
43048;SDS011;28673;44.412;11.918;2024-02-15T07:39:28;47.35;;;21.88;;
43048;SDS011;28673;44.412;11.918;2024-02-15T07:41:54;51.70;;;22.30;;
43048;SDS011;28673;44.412;11.918;2024-02-15T07:44:20;48.22;;;24.08;;
43048;SDS011;28673;44.412;11.918;2024-02-15T07:46:47;45.92;;;22.83;;
43048;SDS011;28673;44.412;11.918;2024-02-15T07:49:13;50.05;;;23.58;;
43048;SDS011;28673;44.412;11.918;2024-02-15T07:51:39;52.88;;;25.27;;
43048;SDS011;28673;44.412;11.918;2024-02-15T07:54:04;53.28;;;25.88;;
43048;SDS011;28673;44.412;11.918;2024-02-15T07:56:34;46.60;;;24.58;;
43048;SDS011;28673;44.412;11.918;2024-02-15T07:59:00;50.28;;;23.75;;
43048;SDS011;28673;44.412;11.918;2024-02-15T08:01:26;49.58;;;23.67;;
43048;SDS011;28673;44.412;11.918;2024-02-15T08:03:52;48.33;;;24.08;;
43048;SDS011;28673;44.412;11.918;2024-02-15T08:06:20;50.65;;;26.00;;
43048;SDS011;28673;44.412;11.918;2024-02-15T08:08:48;57.15;;;27.75;;
43048;SDS011;28673;44.412;11.918;2024-02-15T08:11:16;89.03;;;49.58;;
43048;SDS011;28673;44.412;11.918;2024-02-15T08:16:17;61.30;;;28.85;;
43048;SDS011;28673;44.412;11.918;2024-02-15T08:18:44;56.40;;;31.33;;
43048;SDS011;28673;44.412;11.918;2024-02-15T08:21:11;57.45;;;28.92;;
43048;SDS011;28673;44.412;11.918;2024-02-15T08:23:37;60.63;;;34.10;;
43048;SDS011;28673;44.412;11.918;2024-02-15T08:26:03;65.68;;;33.22;;
43048;SDS011;28673;44.412;11.918;2024-02-15T08:28:29;59.42;;;31.02;;
43048;SDS011;28673;44.412;11.918;2024-02-15T08:30:55;58.75;;;28.67;;
43048;SDS011;28673;44.412;11.918;2024-02-15T08:33:24;53.75;;;29.48;;
43048;SDS011;28673;44.412;11.918;2024-02-15T08:35:53;77.03;;;32.78;;
43048;SDS011;28673;44.412;11.918;2024-02-15T08:38:20;69.05;;;31.15;;
43048;SDS011;28673;44.412;11.918;2024-02-15T08:40:49;57.85;;;31.30;;
43048;SDS011;28673;44.412;11.918;2024-02-15T08:43:15;68.78;;;29.88;;
43048;SDS011;28673;44.412;11.918;2024-02-15T08:45:42;63.60;;;31.15;;
43048;SDS011;28673;44.412;11.918;2024-02-15T08:48:08;59.33;;;29.75;;
43048;SDS011;28673;44.412;11.918;2024-02-15T08:50:34;63.60;;;31.00;;
43048;SDS011;28673;44.412;11.918;2024-02-15T08:53:00;61.22;;;31.50;;
43048;SDS011;28673;44.412;11.918;2024-02-15T08:55:30;59.70;;;30.00;;
43048;SDS011;28673;44.412;11.918;2024-02-15T08:57:56;54.33;;;30.92;;
43048;SDS011;28673;44.412;11.918;2024-02-15T09:00:22;54.00;;;29.67;;
43048;SDS011;28673;44.412;11.918;2024-02-15T09:02:49;62.85;;;29.00;;
43048;SDS011;28673;44.412;11.918;2024-02-15T09:05:16;58.53;;;29.00;;
43048;SDS011;28673;44.412;11.918;2024-02-15T09:07:44;70.30;;;35.15;;
43048;SDS011;28673;44.412;11.918;2024-02-15T09:10:14;56.00;;;29.17;;
43048;SDS011;28673;44.412;11.918;2024-02-15T09:12:42;45.70;;;26.67;;
43048;SDS011;28673;44.412;11.918;2024-02-15T09:15:12;89.22;;;46.63;;
43048;SDS011;28673;44.412;11.918;2024-02-15T09:17:38;48.10;;;26.58;;
43048;SDS011;28673;44.412;11.918;2024-02-15T09:20:07;58.90;;;29.33;;
43048;SDS011;28673;44.412;11.918;2024-02-15T09:22:52;49.58;;;23.92;;
43048;SDS011;28673;44.412;11.918;2024-02-15T09:25:19;41.22;;;22.15;;
43048;SDS011;28673;44.412;11.918;2024-02-15T09:27:49;38.08;;;22.42;;
43048;SDS011;28673;44.412;11.918;2024-02-15T09:30:16;47.53;;;22.83;;
43048;SDS011;28673;44.412;11.918;2024-02-15T09:32:42;46.65;;;24.90;;
43048;SDS011;28673;44.412;11.918;2024-02-15T09:35:09;40.10;;;23.42;;
43048;SDS011;28673;44.412;11.918;2024-02-15T09:37:42;46.00;;;24.15;;
43048;SDS011;28673;44.412;11.918;2024-02-15T09:40:16;38.00;;;22.55;;
43048;SDS011;28673;44.412;11.918;2024-02-15T09:42:43;42.25;;;22.27;;
43048;SDS011;28673;44.412;11.918;2024-02-15T09:45:10;41.40;;;22.08;;
43048;SDS011;28673;44.412;11.918;2024-02-15T09:47:41;41.10;;;22.35;;
43048;SDS011;28673;44.412;11.918;2024-02-15T09:52:59;35.85;;;21.90;;
43048;SDS011;28673;44.412;11.918;2024-02-15T09:55:27;46.50;;;22.80;;
43048;SDS011;28673;44.412;11.918;2024-02-15T09:57:54;46.47;;;22.08;;
43048;SDS011;28673;44.412;11.918;2024-02-15T10:00:20;51.38;;;24.95;;
43048;SDS011;28673;44.412;11.918;2024-02-15T10:02:47;45.20;;;25.40;;
43048;SDS011;28673;44.412;11.918;2024-02-15T10:05:16;39.05;;;24.00;;
43048;SDS011;28673;44.412;11.918;2024-02-15T10:07:43;47.70;;;25.23;;
43048;SDS011;28673;44.412;11.918;2024-02-15T10:12:45;50.40;;;25.90;;
43048;SDS011;28673;44.412;11.918;2024-02-15T10:18:02;44.33;;;25.55;;
43048;SDS011;28673;44.412;11.918;2024-02-15T10:20:29;48.15;;;26.33;;
43048;SDS011;28673;44.412;11.918;2024-02-15T10:25:28;58.17;;;28.92;;
43048;SDS011;28673;44.412;11.918;2024-02-15T10:30:33;47.05;;;26.92;;
43048;SDS011;28673;44.412;11.918;2024-02-15T10:33:00;51.88;;;27.73;;
43048;SDS011;28673;44.412;11.918;2024-02-15T10:35:26;54.08;;;28.95;;
43048;SDS011;28673;44.412;11.918;2024-02-15T10:38:04;49.92;;;27.33;;
43048;SDS011;28673;44.412;11.918;2024-02-15T10:40:37;46.50;;;27.40;;
43048;SDS011;28673;44.412;11.918;2024-02-15T10:43:06;55.33;;;28.13;;
43048;SDS011;28673;44.412;11.918;2024-02-15T10:45:34;55.42;;;28.70;;
43048;SDS011;28673;44.412;11.918;2024-02-15T10:48:02;57.70;;;31.13;;
43048;SDS011;28673;44.412;11.918;2024-02-15T10:50:30;50.58;;;28.92;;
43048;SDS011;28673;44.412;11.918;2024-02-15T10:52:57;47.33;;;28.30;;
43048;SDS011;28673;44.412;11.918;2024-02-15T10:58:41;51.83;;;28.73;;
43048;SDS011;28673;44.412;11.918;2024-02-15T11:01:18;47.22;;;28.63;;
43048;SDS011;28673;44.412;11.918;2024-02-15T11:03:50;43.20;;;26.08;;
43048;SDS011;28673;44.412;11.918;2024-02-15T11:06:22;53.40;;;29.27;;
43048;SDS011;28673;44.412;11.918;2024-02-15T11:08:51;52.80;;;27.38;;
43048;SDS011;28673;44.412;11.918;2024-02-15T11:11:18;52.75;;;29.58;;
43048;SDS011;28673;44.412;11.918;2024-02-15T11:13:46;55.13;;;30.77;;
43048;SDS011;28673;44.412;11.918;2024-02-15T11:16:38;55.53;;;30.88;;
43048;SDS011;28673;44.412;11.918;2024-02-15T11:19:07;48.85;;;30.45;;
43048;SDS011;28673;44.412;11.918;2024-02-15T11:21:52;55.70;;;32.05;;
43048;SDS011;28673;44.412;11.918;2024-02-15T11:24:28;56.63;;;29.73;;
43048;SDS011;28673;44.412;11.918;2024-02-15T11:26:58;52.70;;;29.45;;
43048;SDS011;28673;44.412;11.918;2024-02-15T11:32:46;56.15;;;30.33;;
43048;SDS011;28673;44.412;11.918;2024-02-15T11:35:17;64.78;;;31.77;;
43048;SDS011;28673;44.412;11.918;2024-02-15T11:40:15;62.75;;;31.30;;
43048;SDS011;28673;44.412;11.918;2024-02-15T11:42:42;51.70;;;31.15;;
43048;SDS011;28673;44.412;11.918;2024-02-15T11:45:08;50.35;;;28.48;;
43048;SDS011;28673;44.412;11.918;2024-02-15T11:47:38;55.65;;;28.92;;
43048;SDS011;28673;44.412;11.918;2024-02-15T11:50:07;52.97;;;30.02;;
43048;SDS011;28673;44.412;11.918;2024-02-15T11:53:01;52.47;;;29.00;;
43048;SDS011;28673;44.412;11.918;2024-02-15T11:55:34;52.47;;;28.60;;
43048;SDS011;28673;44.412;11.918;2024-02-15T11:58:02;55.03;;;31.48;;
43048;SDS011;28673;44.412;11.918;2024-02-15T12:00:31;51.53;;;28.88;;
43048;SDS011;28673;44.412;11.918;2024-02-15T12:03:20;51.55;;;29.85;;
43048;SDS011;28673;44.412;11.918;2024-02-15T12:06:05;51.90;;;29.88;;
43048;SDS011;28673;44.412;11.918;2024-02-15T12:08:51;50.90;;;29.45;;
43048;SDS011;28673;44.412;11.918;2024-02-15T12:11:37;56.67;;;29.38;;
43048;SDS011;28673;44.412;11.918;2024-02-15T12:14:21;47.20;;;26.58;;
43048;SDS011;28673;44.412;11.918;2024-02-15T12:17:07;52.03;;;30.05;;
43048;SDS011;28673;44.412;11.918;2024-02-15T12:19:52;50.08;;;26.95;;
43048;SDS011;28673;44.412;11.918;2024-02-15T12:22:27;49.03;;;27.73;;
43048;SDS011;28673;44.412;11.918;2024-02-15T12:24:57;50.67;;;27.25;;
43048;SDS011;28673;44.412;11.918;2024-02-15T12:27:25;45.85;;;26.25;;
43048;SDS011;28673;44.412;11.918;2024-02-15T12:29:58;50.00;;;26.83;;
43048;SDS011;28673;44.412;11.918;2024-02-15T12:32:25;50.63;;;28.50;;
43048;SDS011;28673;44.412;11.918;2024-02-15T12:34:52;46.95;;;25.60;;
43048;SDS011;28673;44.412;11.918;2024-02-15T12:37:34;45.65;;;27.85;;
43048;SDS011;28673;44.412;11.918;2024-02-15T12:40:09;43.67;;;27.45;;
43048;SDS011;28673;44.412;11.918;2024-02-15T12:42:42;47.97;;;27.75;;
43048;SDS011;28673;44.412;11.918;2024-02-15T12:45:18;45.83;;;26.73;;
43048;SDS011;28673;44.412;11.918;2024-02-15T12:47:55;51.65;;;29.33;;
43048;SDS011;28673;44.412;11.918;2024-02-15T12:50:27;46.67;;;26.15;;
43048;SDS011;28673;44.412;11.918;2024-02-15T12:52:54;43.97;;;26.15;;
43048;SDS011;28673;44.412;11.918;2024-02-15T12:55:32;49.00;;;27.23;;
43048;SDS011;28673;44.412;11.918;2024-02-15T12:58:00;47.97;;;27.48;;
43048;SDS011;28673;44.412;11.918;2024-02-15T13:00:29;46.78;;;28.27;;
43048;SDS011;28673;44.412;11.918;2024-02-15T13:02:58;49.28;;;26.27;;
43048;SDS011;28673;44.412;11.918;2024-02-15T13:05:28;46.33;;;26.13;;
43048;SDS011;28673;44.412;11.918;2024-02-15T13:07:54;48.17;;;27.45;;
43048;SDS011;28673;44.412;11.918;2024-02-15T13:10:21;48.65;;;27.13;;
43048;SDS011;28673;44.412;11.918;2024-02-15T13:12:47;47.45;;;26.48;;
43048;SDS011;28673;44.412;11.918;2024-02-15T13:15:14;52.63;;;29.08;;
43048;SDS011;28673;44.412;11.918;2024-02-15T13:17:45;50.35;;;29.90;;
43048;SDS011;28673;44.412;11.918;2024-02-15T13:20:16;48.63;;;28.35;;
43048;SDS011;28673;44.412;11.918;2024-02-15T13:22:45;50.58;;;29.50;;
43048;SDS011;28673;44.412;11.918;2024-02-15T13:25:14;51.65;;;28.77;;
43048;SDS011;28673;44.412;11.918;2024-02-15T13:27:46;90.95;;;50.47;;
43048;SDS011;28673;44.412;11.918;2024-02-15T13:30:12;201.15;;;85.38;;
43048;SDS011;28673;44.412;11.918;2024-02-15T13:32:38;52.25;;;29.88;;
43048;SDS011;28673;44.412;11.918;2024-02-15T13:35:08;44.90;;;26.55;;
43048;SDS011;28673;44.412;11.918;2024-02-15T13:37:47;51.03;;;26.50;;
43048;SDS011;28673;44.412;11.918;2024-02-15T13:40:14;49.35;;;26.50;;
43048;SDS011;28673;44.412;11.918;2024-02-15T13:42:43;46.45;;;26.50;;
43048;SDS011;28673;44.412;11.918;2024-02-15T13:45:15;46.35;;;25.90;;
43048;SDS011;28673;44.412;11.918;2024-02-15T13:47:44;63.60;;;38.08;;
43048;SDS011;28673;44.412;11.918;2024-02-15T13:50:12;51.90;;;28.13;;
43048;SDS011;28673;44.412;11.918;2024-02-15T13:52:42;54.28;;;28.08;;
43048;SDS011;28673;44.412;11.918;2024-02-15T13:55:10;55.27;;;28.47;;
43048;SDS011;28673;44.412;11.918;2024-02-15T13:57:38;46.42;;;27.52;;
43048;SDS011;28673;44.412;11.918;2024-02-15T14:02:39;49.08;;;28.13;;
43048;SDS011;28673;44.412;11.918;2024-02-15T14:05:06;49.97;;;27.75;;
43048;SDS011;28673;44.412;11.918;2024-02-15T14:07:34;46.58;;;26.25;;
43048;SDS011;28673;44.412;11.918;2024-02-15T14:10:03;48.15;;;26.17;;
43048;SDS011;28673;44.412;11.918;2024-02-15T14:12:30;71.07;;;30.50;;
43048;SDS011;28673;44.412;11.918;2024-02-15T14:14:56;48.85;;;27.20;;
43048;SDS011;28673;44.412;11.918;2024-02-15T14:17:22;44.03;;;26.70;;
43048;SDS011;28673;44.412;11.918;2024-02-15T14:19:48;49.15;;;27.10;;
43048;SDS011;28673;44.412;11.918;2024-02-15T14:22:14;47.83;;;27.98;;
43048;SDS011;28673;44.412;11.918;2024-02-15T14:24:44;46.72;;;27.67;;
43048;SDS011;28673;44.412;11.918;2024-02-15T14:27:10;43.85;;;25.23;;
43048;SDS011;28673;44.412;11.918;2024-02-15T14:29:37;47.28;;;24.92;;
43048;SDS011;28673;44.412;11.918;2024-02-15T14:32:12;42.03;;;24.75;;
43048;SDS011;28673;44.412;11.918;2024-02-15T14:34:56;40.47;;;23.63;;
43048;SDS011;28673;44.412;11.918;2024-02-15T14:37:22;41.88;;;25.38;;
43048;SDS011;28673;44.412;11.918;2024-02-15T14:39:49;47.08;;;25.67;;
43048;SDS011;28673;44.412;11.918;2024-02-15T14:42:15;50.20;;;28.10;;
43048;SDS011;28673;44.412;11.918;2024-02-15T14:44:41;44.10;;;26.08;;
43048;SDS011;28673;44.412;11.918;2024-02-15T14:47:08;46.78;;;27.58;;
43048;SDS011;28673;44.412;11.918;2024-02-15T14:49:34;46.90;;;25.83;;
43048;SDS011;28673;44.412;11.918;2024-02-15T14:52:00;42.03;;;26.10;;
43048;SDS011;28673;44.412;11.918;2024-02-15T14:54:27;43.58;;;26.00;;